createdAt,value
2019-06-01T00:00:27.332Z,63.94
2019-06-01T00:02:58.506Z,64.09
2019-06-01T00:05:29.395Z,64.43
2019-06-01T00:08:01.155Z,64.53
2019-06-01T00:10:32.115Z,64.10
2019-06-01T00:13:03.908Z,64.03
2019-06-01T00:15:34.340Z,63.91
2019-06-01T00:18:04.769Z,64.16
2019-06-01T00:20:35.396Z,64.31
2019-06-01T00:23:06.064Z,64.86
2019-06-01T00:25:36.623Z,65.26
2019-06-01T00:28:10.394Z,65.37
2019-06-01T00:30:41.616Z,65.60
2019-06-01T00:33:12.287Z,65.72
2019-06-01T00:35:43.516Z,65.64
2019-06-01T00:38:14.326Z,65.55
2019-06-01T00:40:45.772Z,65.37
2019-06-01T00:43:16.441Z,65.17
2019-06-01T00:45:46.946Z,65.33
2019-06-01T00:48:20.858Z,65.29
2019-06-01T00:50:53.101Z,65.50
2019-06-01T00:53:23.994Z,65.79
2019-06-01T00:55:54.628Z,65.89
2019-06-01T00:58:25.006Z,65.97
2019-06-01T01:00:55.719Z,66.16
2019-06-01T01:03:30.881Z,66.57
2019-06-01T01:06:01.466Z,66.78
2019-06-01T01:08:32.356Z,66.80
2019-06-01T01:11:03.118Z,67.17
2019-06-01T01:13:33.871Z,67.43
2019-06-01T01:16:04.567Z,67.20
2019-06-01T01:18:34.921Z,66.97
2019-06-01T01:21:05.253Z,66.94
2019-06-01T01:23:39.823Z,67.20
2019-06-01T01:26:12.147Z,67.25
2019-06-01T01:28:42.654Z,67.48
2019-06-01T01:31:14.431Z,67.74
2019-06-01T01:33:45.664Z,68.03
2019-06-01T01:36:16.066Z,68.19
2019-06-01T01:38:48.146Z,68.26
2019-06-01T01:41:18.797Z,68.55
2019-06-01T01:43:50.312Z,68.63
2019-06-01T01:46:22.649Z,68.63
2019-06-01T01:48:54.187Z,68.58
2019-06-01T01:51:24.843Z,68.24
2019-06-01T01:53:55.245Z,68.09
2019-06-01T01:56:25.700Z,67.99
2019-06-01T01:58:56.510Z,67.75
2019-06-01T02:01:27.259Z,67.73
2019-06-01T02:04:00.324Z,67.77
2019-06-01T02:06:32.516Z,67.64
2019-06-01T02:09:03.153Z,67.65
2019-06-01T02:11:33.474Z,67.53
2019-06-01T02:14:04.084Z,67.08
2019-06-01T02:16:35.077Z,66.89
2019-06-01T02:19:05.533Z,66.67
2019-06-01T02:21:35.911Z,66.56
2019-06-01T02:24:06.418Z,66.60
2019-06-01T02:26:37.037Z,66.77
2019-06-01T02:29:07.485Z,67.01
2019-06-01T02:31:42.248Z,67.02
2019-06-01T02:34:10.108Z,66.97
2019-06-01T02:36:40.364Z,66.91
2019-06-01T02:39:12.534Z,66.74
2019-06-01T02:41:43.064Z,66.82
2019-06-01T02:44:13.469Z,67.17
2019-06-01T02:46:43.879Z,67.45
2019-06-01T02:49:14.175Z,67.33
2019-06-01T02:51:44.683Z,67.01
2019-06-01T02:54:15.256Z,66.80
2019-06-01T02:56:45.185Z,66.78
2019-06-01T02:59:15.666Z,66.98
2019-06-01T03:01:56.695Z,67.23
2019-06-01T03:04:20.338Z,67.18
2019-06-01T03:06:54.552Z,67.16
2019-06-01T03:09:27.951Z,67.22
2019-06-01T03:12:02.084Z,67.33
2019-06-01T03:14:35.463Z,67.54
2019-06-01T03:17:07.809Z,67.58
2019-06-01T03:19:43.056Z,67.80
2019-06-01T03:22:16.230Z,67.85
2019-06-01T03:24:50.845Z,67.94
2019-06-01T03:27:30.793Z,67.88
2019-06-01T03:30:05.864Z,67.86
2019-06-01T03:32:37.425Z,67.99
2019-06-01T03:35:12.993Z,68.09
2019-06-01T03:37:44.104Z,68.08
2019-06-01T03:40:23.455Z,67.98
2019-06-01T03:42:51.125Z,67.88
2019-06-01T03:45:21.303Z,67.87
2019-06-01T03:50:53.505Z,67.63
2019-06-01T03:53:23.825Z,67.46
2019-06-01T03:55:54.287Z,67.56
2019-06-01T03:58:49.937Z,67.57
2019-06-01T04:01:21.369Z,67.52
2019-06-01T04:03:58.633Z,67.57
2019-06-01T04:06:28.968Z,67.43
2019-06-01T04:08:58.828Z,67.04
2019-06-01T04:11:34.105Z,66.67
2019-06-01T04:14:06.142Z,66.48
2019-06-01T04:16:36.934Z,66.12
2019-06-01T04:19:25.151Z,65.86
2019-06-01T04:21:55.478Z,65.55
2019-06-01T04:24:29.888Z,65.08
2019-06-01T04:26:59.815Z,64.73
2019-06-01T04:29:30.281Z,64.46
2019-06-01T04:32:00.430Z,64.16
2019-06-01T04:34:35.742Z,64.04
2019-06-01T04:37:05.085Z,63.85
2019-06-01T04:39:35.728Z,63.52
2019-06-01T04:42:07.619Z,63.31
2019-06-01T04:44:38.372Z,63.01
2019-06-01T04:47:13.015Z,62.71
2019-06-01T04:49:44.015Z,62.35
2019-06-01T04:52:16.893Z,62.19
2019-06-01T04:54:46.734Z,61.94
2019-06-01T04:57:19.083Z,61.48
2019-06-01T04:59:49.718Z,61.39
2019-06-01T05:02:19.868Z,61.34
2019-06-01T05:04:50.683Z,61.14
2019-06-01T05:07:24.234Z,60.79
2019-06-01T05:09:54.678Z,60.48
2019-06-01T05:12:25.326Z,60.29
2019-06-01T05:14:55.882Z,60.02
2019-06-01T05:17:26.260Z,59.49
2019-06-01T05:19:56.768Z,59.25
2019-06-01T05:22:29.366Z,58.94
2019-06-01T05:25:00.218Z,58.53
2019-06-01T05:27:40.440Z,58.25
2019-06-01T05:30:11.676Z,58.09
2019-06-01T05:32:43.823Z,57.46
2019-06-01T05:35:15.897Z,57.30
2019-06-01T05:37:46.589Z,57.02
2019-06-01T05:40:19.636Z,56.64
2019-06-01T05:42:49.469Z,56.25
2019-06-01T05:45:22.657Z,55.54
2019-06-01T05:47:53.031Z,55.31
2019-06-01T05:50:23.702Z,54.91
2019-06-01T05:52:54.283Z,54.64
2019-06-01T05:55:26.556Z,54.47
2019-06-01T05:57:58.908Z,54.19
2019-06-01T06:00:45.376Z,54.06
2019-06-01T06:03:21.762Z,53.58
2019-06-01T06:05:48.591Z,53.35
2019-06-01T06:08:20.143Z,53.14
2019-06-01T06:10:50.780Z,52.76
2019-06-01T06:13:21.679Z,52.46
2019-06-01T06:15:52.270Z,52.52
2019-06-01T06:18:24.503Z,52.03
2019-06-01T06:20:56.801Z,51.63
2019-06-01T06:23:27.357Z,51.38
2019-06-01T06:26:02.462Z,50.88
2019-06-01T06:28:37.038Z,50.45
2019-06-01T06:31:07.553Z,49.65
2019-06-01T06:33:55.627Z,49.41
2019-06-01T06:36:17.847Z,49.56
2019-06-01T06:38:48.511Z,49.43
2019-06-01T06:41:20.262Z,49.04
2019-06-01T06:43:50.887Z,48.19
2019-06-01T06:46:26.209Z,47.40
2019-06-01T06:48:56.654Z,46.08
2019-06-01T06:51:28.747Z,45.32
2019-06-01T06:53:59.535Z,44.60
2019-06-01T06:56:31.705Z,43.56
2019-06-01T06:59:02.151Z,42.91
2019-06-01T07:01:32.569Z,42.53
2019-06-01T07:04:12.584Z,42.20
2019-06-01T07:06:38.930Z,41.69
2019-06-01T07:09:11.283Z,40.77
2019-06-01T07:11:42.377Z,40.31
2019-06-01T07:14:12.726Z,40.31
2019-06-01T07:16:46.280Z,40.27
2019-06-01T07:19:17.378Z,40.26
2019-06-01T07:21:47.869Z,39.82
2019-06-01T07:24:18.199Z,39.60
2019-06-01T07:26:48.569Z,39.43
2019-06-01T07:29:19.952Z,38.85
2019-06-01T07:31:50.467Z,38.83
2019-06-01T07:34:37.229Z,39.29
2019-06-01T07:36:52.925Z,39.06
2019-06-01T07:39:24.754Z,39.09
2019-06-01T07:41:55.622Z,38.84
2019-06-01T07:44:26.930Z,38.29
2019-06-01T07:47:02.569Z,37.24
2019-06-01T07:49:32.542Z,36.70
2019-06-01T07:52:12.689Z,36.88
2019-06-01T07:54:34.988Z,36.81
2019-06-01T07:57:05.344Z,35.82
2019-06-01T07:59:42.120Z,35.12
2019-06-01T08:02:12.968Z,34.84
2019-06-01T08:04:53.242Z,34.94
2019-06-01T08:07:31.292Z,34.61
2019-06-01T08:09:55.642Z,33.86
2019-06-01T08:12:32.183Z,33.61
2019-06-01T08:15:06.796Z,33.07
2019-06-01T08:17:37.065Z,32.91
2019-06-01T08:20:07.893Z,32.40
2019-06-01T08:22:38.197Z,32.11
2019-06-01T08:25:08.537Z,31.88
2019-06-01T08:27:38.854Z,30.76
2019-06-01T08:30:10.935Z,29.92
2019-06-01T08:32:41.266Z,29.09
2019-06-01T08:35:12.650Z,28.62
2019-06-01T08:37:42.994Z,27.20
2019-06-01T08:40:14.542Z,27.41
2019-06-01T08:42:44.845Z,26.21
2019-06-01T08:45:15.329Z,25.92
2019-06-01T08:47:45.697Z,26.25
2019-06-01T08:50:16.391Z,25.68
2019-06-01T08:52:46.692Z,24.81
2019-06-01T08:55:17.109Z,24.65
2019-06-01T08:57:47.387Z,24.23
2019-06-01T09:00:18.172Z,23.72
2019-06-01T09:02:48.434Z,23.33
2019-06-01T09:05:24.972Z,22.81
2019-06-01T09:07:55.216Z,21.69
2019-06-01T09:10:25.474Z,20.69
2019-06-01T09:12:55.766Z,20.41
2019-06-01T09:15:27.450Z,20.43
2019-06-01T09:17:57.889Z,19.96
2019-06-01T09:20:30.204Z,19.62
2019-06-01T09:23:00.184Z,19.70
2019-06-01T09:25:31.697Z,21.30
2019-06-01T09:28:02.099Z,22.16
2019-06-01T09:30:32.485Z,20.91
2019-06-01T09:33:02.750Z,20.80
2019-06-01T09:35:47.746Z,20.81
2019-06-01T09:38:05.244Z,19.81
2019-06-01T09:40:37.323Z,18.76
2019-06-01T09:43:07.794Z,18.45
2019-06-01T09:45:38.393Z,17.62
2019-06-01T09:48:08.733Z,17.14
2019-06-01T09:50:39.038Z,17.36
2019-06-01T09:53:09.363Z,17.83
2019-06-01T09:55:39.640Z,18.03
2019-06-01T09:58:09.919Z,17.94
2019-06-01T10:00:43.638Z,19.31
2019-06-01T10:03:12.448Z,21.50
2019-06-01T10:05:43.059Z,20.55
2019-06-01T10:08:13.431Z,19.08
2019-06-01T10:10:43.757Z,18.41
2019-06-01T10:13:14.036Z,17.59
2019-06-01T10:15:44.338Z,16.87
2019-06-01T10:18:14.648Z,16.02
2019-06-01T10:20:44.886Z,15.19
2019-06-01T10:23:15.175Z,14.40
2019-06-01T10:25:45.450Z,13.75
2019-06-01T10:28:17.673Z,12.72
2019-06-01T10:30:47.923Z,12.97
2019-06-01T10:33:18.216Z,12.82
2019-06-01T10:35:48.596Z,13.39
2019-06-01T10:38:18.972Z,12.80
2019-06-01T10:40:49.671Z,12.66
2019-06-01T10:43:19.670Z,12.45
2019-06-01T10:45:50.524Z,12.63
2019-06-01T10:48:20.911Z,14.28
2019-06-01T10:50:51.174Z,14.02
2019-06-01T10:53:21.144Z,12.61
2019-06-01T10:55:51.412Z,12.88
2019-06-01T10:58:21.707Z,14.82
2019-06-01T11:00:52.164Z,13.81
2019-06-01T11:03:22.471Z,13.44
2019-06-01T11:05:52.747Z,16.52
2019-06-01T11:08:23.013Z,18.36
2019-06-01T11:10:53.448Z,15.84
2019-06-01T11:13:23.843Z,14.62
2019-06-01T11:15:54.127Z,13.77
2019-06-01T11:18:24.100Z,12.15
2019-06-01T11:20:54.072Z,10.79
2019-06-01T11:23:24.056Z,9.76
2019-06-01T11:25:54.033Z,9.04
2019-06-01T11:28:24.019Z,8.71
2019-06-01T11:30:54.015Z,8.67
2019-06-01T11:33:23.988Z,9.18
2019-06-01T11:35:53.970Z,8.07
2019-06-01T11:38:23.955Z,7.54
2019-06-01T11:40:57.460Z,7.63
2019-06-01T11:43:27.386Z,7.91
2019-06-01T11:45:57.356Z,7.86
2019-06-01T11:48:27.319Z,7.67
2019-06-01T11:50:57.304Z,7.94
2019-06-01T11:53:27.242Z,8.03
2019-06-01T11:55:58.269Z,8.50
2019-06-01T11:58:28.184Z,8.35
2019-06-01T12:00:58.259Z,7.65
2019-06-01T12:03:29.811Z,7.53
2019-06-01T12:05:59.773Z,7.39
2019-06-01T12:08:33.868Z,7.04
2019-06-01T12:11:01.459Z,7.01
2019-06-01T12:13:31.455Z,7.09
2019-06-01T12:16:01.471Z,7.16
2019-06-01T12:18:31.424Z,7.79
2019-06-01T12:21:01.399Z,7.83
2019-06-01T12:23:31.356Z,7.59
2019-06-01T12:26:01.359Z,7.26
2019-06-01T12:28:31.511Z,6.75
2019-06-01T12:31:01.499Z,6.25
2019-06-01T12:33:31.480Z,6.00
2019-06-01T12:36:01.428Z,5.89
2019-06-01T12:38:33.049Z,6.23
2019-06-01T12:41:03.025Z,6.91
2019-06-01T12:43:33.034Z,7.03
2019-06-01T12:46:07.641Z,6.44
2019-06-01T12:48:34.688Z,6.22
2019-06-01T12:51:04.674Z,6.20
2019-06-01T12:53:34.644Z,6.36
2019-06-01T12:56:04.710Z,6.27
2019-06-01T12:58:34.678Z,6.00
2019-06-01T13:01:04.685Z,6.15
2019-06-01T13:03:36.123Z,6.47
2019-06-01T13:06:06.114Z,6.63
2019-06-01T13:08:36.241Z,6.55
2019-06-01T13:11:06.221Z,6.53
2019-06-01T13:13:36.247Z,6.25
2019-06-01T13:16:06.296Z,6.08
2019-06-01T13:18:36.291Z,5.58
2019-06-01T13:21:06.278Z,5.80
2019-06-01T13:23:36.241Z,6.35
2019-06-01T13:26:06.248Z,6.38
2019-06-01T13:28:38.352Z,5.83
2019-06-01T13:31:07.971Z,5.74
2019-06-01T13:33:38.004Z,6.93
2019-06-01T13:36:08.075Z,9.04
2019-06-01T13:38:38.021Z,9.87
2019-06-01T13:41:08.132Z,9.03
2019-06-01T13:43:38.077Z,7.95
2019-06-01T13:46:08.109Z,7.20
2019-06-01T13:48:38.123Z,6.98
2019-06-01T13:51:08.202Z,6.99
2019-06-01T13:53:41.289Z,7.11
2019-06-01T13:56:11.264Z,7.17
2019-06-01T13:58:44.299Z,7.03
2019-06-01T14:01:14.489Z,6.99
2019-06-01T14:03:44.993Z,6.70
2019-06-01T14:06:15.120Z,6.60
2019-06-01T14:08:45.163Z,6.92
2019-06-01T14:11:15.160Z,7.02
2019-06-01T14:13:45.363Z,7.21
2019-06-01T14:16:15.756Z,7.51
2019-06-01T14:18:45.729Z,8.84
2019-06-01T14:21:15.695Z,10.28
2019-06-01T14:23:45.832Z,9.61
2019-06-01T14:26:15.904Z,8.76
2019-06-01T14:28:46.377Z,8.31
2019-06-01T14:31:16.385Z,8.42
2019-06-01T14:33:46.540Z,8.42
2019-06-01T14:36:16.593Z,8.31
2019-06-01T14:38:48.975Z,8.08
2019-06-01T14:41:18.325Z,8.42
2019-06-01T14:43:49.075Z,8.57
2019-06-01T14:46:19.187Z,8.39
2019-06-01T14:48:49.406Z,8.37
2019-06-01T14:51:19.446Z,8.78
2019-06-01T14:53:49.554Z,9.08
2019-06-01T14:56:19.702Z,9.25
2019-06-01T14:58:49.945Z,10.32
2019-06-01T15:01:31.773Z,10.21
2019-06-01T15:03:52.277Z,9.90
2019-06-01T15:06:22.255Z,9.54
2019-06-01T15:09:10.566Z,9.54
2019-06-01T15:11:23.926Z,9.85
2019-06-01T15:13:54.449Z,10.05
2019-06-01T15:16:24.576Z,10.68
2019-06-01T15:18:55.934Z,11.10
2019-06-01T15:21:26.144Z,11.15
2019-06-01T15:23:56.720Z,11.08
2019-06-01T15:26:26.770Z,11.08
2019-06-01T15:28:57.133Z,10.74
2019-06-01T15:31:27.187Z,10.72
2019-06-01T15:33:57.457Z,10.63
2019-06-01T15:36:27.405Z,10.98
2019-06-01T15:38:57.924Z,11.18
2019-06-01T15:41:28.166Z,11.75
2019-06-01T15:43:59.150Z,11.65
2019-06-01T15:46:29.585Z,11.85
2019-06-01T15:49:00.201Z,12.46
2019-06-01T15:51:30.635Z,12.35
2019-06-01T15:54:01.151Z,12.23
2019-06-01T15:56:31.270Z,12.19
2019-06-01T15:59:02.759Z,12.66
2019-06-01T16:01:33.200Z,13.68
2019-06-01T16:04:03.537Z,14.57
2019-06-01T16:06:33.828Z,16.24
2019-06-01T16:09:05.173Z,18.12
2019-06-01T16:11:35.497Z,19.51
2019-06-01T16:14:06.319Z,20.84
2019-06-01T16:16:36.588Z,21.95
2019-06-01T16:19:08.068Z,22.89
2019-06-01T16:21:38.541Z,23.51
2019-06-01T16:24:08.820Z,23.66
2019-06-01T16:26:39.085Z,23.90
2019-06-01T16:29:09.356Z,24.90
2019-06-01T16:31:39.652Z,25.12
2019-06-01T16:34:09.942Z,25.02
2019-06-01T16:36:40.210Z,25.37
2019-06-01T16:39:10.862Z,25.71
2019-06-01T16:41:41.108Z,26.02
2019-06-01T16:44:11.384Z,26.46
2019-06-01T16:46:41.730Z,26.91
2019-06-01T16:49:12.020Z,26.92
2019-06-01T16:51:59.112Z,26.87
2019-06-01T16:54:29.616Z,27.14
2019-06-01T16:56:59.890Z,27.08
2019-06-01T16:59:30.166Z,27.39
2019-06-01T17:02:00.975Z,27.51
2019-06-01T17:04:31.411Z,28.01
2019-06-01T17:07:05.007Z,28.45
2019-06-01T17:09:33.731Z,28.13
2019-06-01T17:12:05.239Z,28.13
2019-06-01T17:14:35.745Z,28.07
2019-06-01T17:17:07.468Z,28.80
2019-06-01T17:19:37.938Z,29.28
2019-06-01T17:22:08.277Z,29.05
2019-06-01T17:24:38.550Z,29.08
2019-06-01T17:27:08.833Z,29.26
2019-06-01T17:29:39.090Z,29.49
2019-06-01T17:32:23.575Z,29.58
2019-06-01T17:34:41.542Z,29.75
2019-06-01T17:37:11.829Z,30.02
2019-06-01T17:39:42.153Z,30.20
2019-06-01T17:42:12.703Z,29.95
2019-06-01T17:44:43.355Z,30.57
2019-06-01T17:47:13.621Z,30.39
2019-06-01T17:49:43.895Z,30.58
2019-06-01T17:52:14.167Z,30.72
2019-06-01T17:54:44.420Z,30.82
2019-06-01T17:57:14.687Z,31.19
2019-06-01T17:59:44.975Z,30.86
2019-06-01T18:02:15.395Z,30.99
2019-06-01T18:04:46.764Z,31.27
2019-06-01T18:07:17.041Z,31.65
2019-06-01T18:09:47.366Z,31.83
2019-06-01T18:12:17.954Z,32.03
2019-06-01T18:14:48.255Z,32.14
2019-06-01T18:17:18.555Z,32.21
2019-06-01T18:19:48.797Z,32.59
2019-06-01T18:22:19.090Z,32.55
2019-06-01T18:24:49.418Z,32.91
2019-06-01T18:27:19.699Z,32.99
2019-06-01T18:29:49.981Z,33.14
2019-06-01T18:32:21.969Z,33.46
2019-06-01T18:34:58.023Z,33.70
2019-06-01T18:37:28.223Z,34.09
2019-06-01T18:39:58.514Z,34.29
2019-06-01T18:42:31.217Z,34.53
2019-06-01T18:45:01.845Z,35.14
2019-06-01T18:47:33.589Z,35.39
2019-06-01T18:50:05.805Z,35.92
2019-06-01T18:52:36.567Z,36.19
2019-06-01T18:55:08.499Z,36.40
2019-06-01T18:57:43.939Z,36.81
2019-06-01T19:00:16.710Z,37.04
2019-06-01T19:02:47.053Z,37.48
2019-06-01T19:05:17.391Z,37.86
2019-06-01T19:07:47.678Z,38.26
2019-06-01T19:10:18.469Z,38.44
2019-06-01T19:12:48.874Z,38.89
2019-06-01T19:15:28.360Z,39.14
2019-06-01T19:17:52.020Z,39.27
2019-06-01T19:20:22.287Z,39.37
2019-06-01T19:22:53.107Z,39.44
2019-06-01T19:25:26.068Z,39.73
2019-06-01T19:27:56.560Z,39.86
2019-06-01T19:30:43.877Z,40.01
2019-06-01T19:33:17.428Z,40.20
2019-06-01T19:35:46.361Z,40.78
2019-06-01T19:38:18.204Z,41.08
2019-06-01T19:40:48.609Z,41.40
2019-06-01T19:43:18.885Z,41.57
2019-06-01T19:45:49.148Z,41.88
2019-06-01T19:48:19.571Z,42.20
2019-06-01T19:50:49.986Z,42.94
2019-06-01T19:53:20.307Z,43.23
2019-06-01T19:55:50.589Z,43.52
2019-06-01T19:58:22.252Z,43.84
2019-06-01T20:00:52.712Z,44.14
2019-06-01T20:03:24.162Z,44.43
2019-06-01T20:05:54.451Z,44.70
2019-06-01T20:08:24.827Z,44.91
2019-06-01T20:10:56.652Z,44.89
2019-06-01T20:13:26.963Z,44.99
2019-06-01T20:15:57.207Z,45.15
2019-06-01T20:18:28.888Z,45.13
2019-06-01T20:21:01.723Z,45.18
2019-06-01T20:23:33.851Z,45.49
2019-06-01T20:26:04.948Z,45.60
2019-06-01T20:28:36.098Z,45.62
2019-06-01T20:31:06.349Z,45.65
2019-06-01T20:33:39.691Z,45.83
2019-06-01T20:36:10.386Z,45.99
2019-06-01T20:38:40.651Z,46.17
2019-06-01T20:41:12.533Z,46.25
2019-06-01T20:43:42.934Z,46.47
2019-06-01T20:46:14.478Z,46.73
2019-06-01T20:48:45.149Z,46.84
2019-06-01T20:51:16.699Z,47.07
2019-06-01T20:53:47.106Z,47.18
2019-06-01T20:56:17.453Z,47.45
2019-06-01T20:58:47.971Z,47.70
2019-06-01T21:01:18.248Z,47.91
2019-06-01T21:03:48.522Z,48.06
2019-06-01T21:06:20.693Z,48.33
2019-06-01T21:08:50.816Z,48.54
2019-06-01T21:11:22.250Z,48.67
2019-06-01T21:13:55.553Z,48.75
2019-06-01T21:16:25.836Z,49.12
2019-06-01T21:18:56.186Z,49.36
2019-06-01T21:21:26.446Z,49.62
2019-06-01T21:23:56.763Z,49.60
2019-06-01T21:26:28.281Z,49.73
2019-06-01T21:28:58.537Z,49.83
2019-06-01T21:31:28.811Z,50.11
2019-06-01T21:33:59.218Z,50.24
2019-06-01T21:36:29.541Z,50.40
2019-06-01T21:38:59.818Z,50.57
2019-06-01T21:41:30.514Z,50.77
2019-06-01T21:44:00.719Z,51.00
2019-06-01T21:46:31.062Z,51.33
2019-06-01T21:49:04.895Z,51.49
2019-06-01T21:51:35.151Z,51.73
2019-06-01T21:54:05.917Z,51.82
2019-06-01T21:56:36.176Z,52.04
2019-06-01T21:59:06.526Z,52.26
2019-06-01T22:01:36.971Z,52.36
2019-06-01T22:04:10.370Z,52.52
2019-06-01T22:06:40.654Z,52.56
2019-06-01T22:09:10.986Z,52.71
2019-06-01T22:11:41.253Z,52.90
2019-06-01T22:14:11.544Z,53.02
2019-06-01T22:16:42.984Z,53.20
2019-06-01T22:19:13.251Z,53.35
2019-06-01T22:21:43.562Z,53.54
2019-06-01T22:24:13.852Z,53.74
2019-06-01T22:26:44.138Z,53.51
2019-06-01T22:29:14.426Z,53.25
2019-06-01T22:31:44.674Z,53.37
2019-06-01T22:34:14.971Z,53.13
2019-06-01T22:36:45.329Z,53.14
2019-06-01T22:39:15.595Z,53.22
2019-06-01T22:41:45.961Z,53.41
2019-06-01T22:44:17.192Z,53.64
2019-06-01T22:46:48.206Z,54.02
2019-06-01T22:49:18.445Z,54.13
2019-06-01T22:51:48.754Z,54.52
2019-06-01T22:54:19.085Z,54.75
2019-06-01T22:56:49.791Z,54.96
2019-06-01T22:59:20.542Z,55.29
2019-06-01T23:01:50.935Z,55.48
2019-06-01T23:04:21.216Z,55.61
2019-06-01T23:06:51.551Z,55.65
2019-06-01T23:09:22.964Z,55.73
2019-06-01T23:11:53.419Z,55.79
2019-06-01T23:14:23.698Z,56.06
2019-06-01T23:16:54.003Z,56.23
2019-06-01T23:19:25.683Z,56.47
2019-06-01T23:21:56.166Z,56.71
2019-06-01T23:24:26.429Z,56.81
2019-06-01T23:26:57.185Z,57.05
2019-06-01T23:29:28.072Z,57.20
2019-06-01T23:31:58.479Z,57.33
2019-06-01T23:34:28.849Z,57.52
2019-06-01T23:36:59.178Z,57.65
2019-06-01T23:39:30.731Z,57.71
2019-06-01T23:42:01.244Z,57.84
2019-06-01T23:44:33.529Z,57.91
2019-06-01T23:47:03.601Z,58.01
2019-06-01T23:49:34.122Z,58.22
2019-06-01T23:52:04.576Z,58.31
2019-06-01T23:54:35.614Z,58.50
2019-06-01T23:57:06.337Z,58.65
2019-06-01T23:59:36.886Z,58.92
